createdAt,value
2023-03-19T00:00:42.959Z,6.90
2023-03-19T00:03:09.194Z,6.86
2023-03-19T00:05:35.647Z,6.84
2023-03-19T00:08:01.925Z,6.82
2023-03-19T00:10:28.130Z,6.80
2023-03-19T00:12:54.381Z,6.76
2023-03-19T00:15:20.610Z,6.74
2023-03-19T00:17:46.813Z,6.74
2023-03-19T00:20:13.087Z,6.79
2023-03-19T00:22:39.316Z,6.75
2023-03-19T00:25:05.759Z,6.73
2023-03-19T00:27:31.981Z,6.74
2023-03-19T00:29:58.208Z,6.37
2023-03-19T00:32:24.429Z,6.42
2023-03-19T00:34:50.644Z,6.53
2023-03-19T00:37:16.848Z,6.43
2023-03-19T00:39:43.071Z,6.23
2023-03-19T00:42:09.334Z,6.40
2023-03-19T00:44:35.552Z,6.48
2023-03-19T00:47:01.751Z,6.49
2023-03-19T00:49:27.964Z,6.58
2023-03-19T00:51:54.180Z,6.61
2023-03-19T00:54:20.402Z,6.57
2023-03-19T00:56:46.605Z,6.41
2023-03-19T00:59:12.835Z,6.43
2023-03-19T01:01:39.079Z,6.49
2023-03-19T01:04:05.373Z,6.50
2023-03-19T01:06:31.676Z,6.42
2023-03-19T01:08:57.875Z,6.48
2023-03-19T01:11:24.092Z,6.52
2023-03-19T01:13:50.293Z,6.57
2023-03-19T01:16:16.497Z,6.52
2023-03-19T01:18:42.703Z,6.45
2023-03-19T01:21:08.929Z,6.33
2023-03-19T01:23:35.128Z,6.38
2023-03-19T01:26:01.332Z,6.47
2023-03-19T01:28:27.541Z,6.54
2023-03-19T01:30:53.805Z,6.58
2023-03-19T01:33:20.028Z,6.63
2023-03-19T01:35:46.646Z,6.63
2023-03-19T01:38:12.850Z,6.47
2023-03-19T01:40:43.599Z,6.49
2023-03-19T01:43:14.267Z,6.57
2023-03-19T01:45:41.040Z,6.49
2023-03-19T01:48:07.236Z,6.45
2023-03-19T01:50:40.392Z,6.43
2023-03-19T01:53:06.623Z,6.32
2023-03-19T01:55:32.840Z,6.25
2023-03-19T01:57:59.055Z,6.38
2023-03-19T02:00:25.281Z,6.48
2023-03-19T02:02:52.803Z,6.41
2023-03-19T02:05:19.034Z,6.16
2023-03-19T02:07:45.233Z,6.15
2023-03-19T02:10:12.112Z,6.22
2023-03-19T02:12:38.379Z,6.37
2023-03-19T02:15:05.039Z,6.48
2023-03-19T02:17:31.245Z,6.55
2023-03-19T02:20:13.455Z,6.42
2023-03-19T02:22:41.227Z,6.47
2023-03-19T02:25:19.225Z,6.51
2023-03-19T02:27:45.433Z,6.58
2023-03-19T02:30:28.245Z,6.67
2023-03-19T02:32:54.507Z,6.64
2023-03-19T02:35:20.723Z,6.64
2023-03-19T02:37:46.942Z,6.58
2023-03-19T02:40:14.793Z,6.47
2023-03-19T02:42:41.024Z,6.34
2023-03-19T02:45:07.411Z,6.38
2023-03-19T02:47:33.620Z,6.57
2023-03-19T02:49:59.812Z,6.58
2023-03-19T02:52:26.098Z,6.61
2023-03-19T02:54:52.301Z,6.64
2023-03-19T02:57:18.513Z,6.69
2023-03-19T02:59:44.723Z,6.70
2023-03-19T03:02:11.035Z,6.71
2023-03-19T03:04:37.313Z,6.76
2023-03-19T03:07:04.028Z,6.65
2023-03-19T03:09:30.249Z,6.55
2023-03-19T03:11:56.481Z,6.57
2023-03-19T03:14:22.739Z,6.59
2023-03-19T03:16:48.965Z,6.64
2023-03-19T03:19:15.171Z,6.70
2023-03-19T03:21:41.384Z,6.70
2023-03-19T03:24:07.703Z,6.72
2023-03-19T03:26:33.917Z,6.69
2023-03-19T03:29:00.131Z,6.76
2023-03-19T03:31:26.339Z,6.81
2023-03-19T03:33:52.575Z,6.85
2023-03-19T03:36:18.792Z,6.83
2023-03-19T03:38:45.332Z,6.85
2023-03-19T03:41:11.554Z,6.87
2023-03-19T03:43:37.750Z,6.85
2023-03-19T03:46:03.988Z,6.87
2023-03-19T03:48:30.234Z,6.83
2023-03-19T03:50:56.473Z,6.87
2023-03-19T03:53:22.683Z,6.90
2023-03-19T03:55:49.007Z,6.91
2023-03-19T03:58:15.228Z,6.92
2023-03-19T04:00:41.426Z,6.95
2023-03-19T04:03:07.673Z,6.92
2023-03-19T04:05:33.896Z,7.00
2023-03-19T04:08:00.127Z,7.00
2023-03-19T04:10:26.329Z,6.97
2023-03-19T04:12:52.546Z,7.04
2023-03-19T04:15:18.744Z,7.02
2023-03-19T04:17:44.956Z,7.02
2023-03-19T04:20:11.319Z,7.04
2023-03-19T04:22:37.555Z,7.04
2023-03-19T04:25:06.026Z,7.01
2023-03-19T04:27:32.235Z,7.02
2023-03-19T04:29:58.458Z,7.03
2023-03-19T04:32:24.670Z,7.07
2023-03-19T04:34:50.877Z,7.04
2023-03-19T04:37:17.089Z,6.99
2023-03-19T04:39:43.302Z,6.91
2023-03-19T04:42:09.681Z,6.87
2023-03-19T04:44:35.880Z,6.88
2023-03-19T04:47:02.093Z,6.82
2023-03-19T04:49:28.314Z,6.83
2023-03-19T04:51:54.523Z,6.84
2023-03-19T04:54:20.734Z,6.83
2023-03-19T04:56:46.978Z,6.88
2023-03-19T04:59:13.176Z,6.82
2023-03-19T05:01:39.473Z,6.78
2023-03-19T05:04:05.721Z,6.78
2023-03-19T05:06:31.985Z,6.74
2023-03-19T05:08:58.197Z,6.75
2023-03-19T05:11:24.399Z,6.71
2023-03-19T05:13:50.614Z,6.70
2023-03-19T05:16:16.865Z,6.70
2023-03-19T05:18:43.111Z,6.73
2023-03-19T05:21:12.397Z,6.72
2023-03-19T05:23:38.834Z,6.74
2023-03-19T05:26:05.172Z,6.74
2023-03-19T05:28:31.403Z,6.76
2023-03-19T05:30:57.626Z,6.74
2023-03-19T05:33:23.857Z,6.75
2023-03-19T05:35:50.126Z,6.76
2023-03-19T05:38:16.474Z,6.71
2023-03-19T05:40:42.685Z,6.70
2023-03-19T05:43:09.236Z,6.69
2023-03-19T05:45:35.442Z,6.66
2023-03-19T05:48:02.077Z,6.65
2023-03-19T05:50:28.270Z,6.63
2023-03-19T05:52:54.478Z,6.62
2023-03-19T05:55:20.684Z,6.62
2023-03-19T05:57:46.890Z,6.57
2023-03-19T06:00:13.441Z,6.59
2023-03-19T06:02:39.688Z,6.63
2023-03-19T06:05:06.112Z,6.60
2023-03-19T06:07:32.330Z,6.65
2023-03-19T06:09:58.551Z,6.70
2023-03-19T06:12:24.819Z,6.74
2023-03-19T06:14:51.037Z,6.78
2023-03-19T06:17:17.254Z,6.78
2023-03-19T06:19:43.448Z,6.75
2023-03-19T06:22:09.681Z,6.86
2023-03-19T06:24:35.877Z,6.89
2023-03-19T06:27:02.204Z,6.79
2023-03-19T06:29:28.405Z,6.66
2023-03-19T06:31:57.503Z,6.84
2023-03-19T06:34:24.223Z,6.92
2023-03-19T06:36:50.436Z,7.03
2023-03-19T06:39:16.645Z,7.24
2023-03-19T06:41:42.852Z,7.50
2023-03-19T06:44:09.076Z,7.80
2023-03-19T06:46:35.270Z,7.83
2023-03-19T06:49:01.483Z,8.34
2023-03-19T06:51:27.694Z,8.64
2023-03-19T06:53:54.032Z,8.64
2023-03-19T06:56:20.245Z,8.75
2023-03-19T06:58:46.473Z,9.24
2023-03-19T07:01:12.737Z,9.68
2023-03-19T07:03:38.986Z,10.48
2023-03-19T07:06:05.284Z,11.27
2023-03-19T07:08:31.488Z,11.52
2023-03-19T07:10:57.701Z,12.05
2023-03-19T07:13:23.922Z,12.41
2023-03-19T07:15:50.158Z,12.61
2023-03-19T07:18:16.358Z,12.85
2023-03-19T07:20:42.564Z,13.30
2023-03-19T07:23:08.776Z,13.67
2023-03-19T07:25:34.977Z,13.87
2023-03-19T07:28:01.211Z,14.25
2023-03-19T07:30:27.406Z,14.52
2023-03-19T07:32:53.686Z,14.74
2023-03-19T07:35:19.912Z,14.87
2023-03-19T07:37:46.113Z,15.15
2023-03-19T07:40:12.344Z,15.58
2023-03-19T07:42:38.570Z,15.56
2023-03-19T07:45:05.089Z,15.69
2023-03-19T07:47:31.453Z,15.63
2023-03-19T07:49:57.654Z,15.33
2023-03-19T07:52:24.269Z,15.16
2023-03-19T07:54:50.488Z,15.44
2023-03-19T07:57:16.737Z,15.76
2023-03-19T07:59:42.990Z,15.86
2023-03-19T08:02:12.065Z,16.02
2023-03-19T08:04:38.510Z,15.98
2023-03-19T08:07:04.706Z,16.12
2023-03-19T08:09:30.906Z,16.28
2023-03-19T08:11:57.103Z,16.35
2023-03-19T08:14:23.313Z,16.22
2023-03-19T08:16:49.575Z,16.20
2023-03-19T08:19:15.807Z,16.35
2023-03-19T08:21:42.106Z,16.05
2023-03-19T08:24:08.527Z,16.14
2023-03-19T08:26:34.735Z,16.07
2023-03-19T08:29:00.971Z,15.86
2023-03-19T08:31:27.232Z,15.77
2023-03-19T08:33:53.476Z,15.69
2023-03-19T08:36:19.675Z,15.51
2023-03-19T08:38:45.889Z,15.57
2023-03-19T08:41:12.087Z,15.83
2023-03-19T08:43:38.299Z,15.88
2023-03-19T08:46:04.777Z,16.19
2023-03-19T08:48:31.072Z,16.40
2023-03-19T08:50:58.256Z,16.28
2023-03-19T08:53:24.507Z,16.45
2023-03-19T08:55:51.593Z,16.79
2023-03-19T08:58:17.819Z,16.78
2023-03-19T09:00:44.024Z,17.04
2023-03-19T09:03:10.314Z,16.90
2023-03-19T09:05:36.508Z,17.05
2023-03-19T09:08:02.714Z,16.93
2023-03-19T09:10:28.906Z,17.06
2023-03-19T09:12:55.116Z,17.31
2023-03-19T09:15:21.335Z,17.16
2023-03-19T09:17:47.541Z,17.29
2023-03-19T09:20:13.759Z,17.44
2023-03-19T09:22:39.957Z,17.30
2023-03-19T09:25:06.481Z,17.23
2023-03-19T09:27:32.696Z,16.93
2023-03-19T09:29:58.911Z,17.05
2023-03-19T09:32:25.107Z,16.98
2023-03-19T09:34:51.317Z,17.03
2023-03-19T09:37:17.547Z,17.11
2023-03-19T09:39:43.762Z,17.39
2023-03-19T09:42:14.831Z,17.48
2023-03-19T09:44:41.166Z,17.36
2023-03-19T09:47:26.319Z,17.52
2023-03-19T09:49:55.938Z,17.42
2023-03-19T09:52:28.913Z,17.94
2023-03-19T09:54:56.228Z,17.73
2023-03-19T09:57:22.444Z,17.95
2023-03-19T09:59:48.660Z,17.89
2023-03-19T10:02:33.634Z,17.80
2023-03-19T10:05:08.952Z,18.04
2023-03-19T10:07:41.414Z,17.75
2023-03-19T10:10:16.825Z,17.62
2023-03-19T10:12:45.615Z,17.55
2023-03-19T10:15:15.373Z,17.77
2023-03-19T10:17:48.073Z,18.04
2023-03-19T10:20:21.341Z,17.94
2023-03-19T10:22:48.885Z,18.28
2023-03-19T10:25:22.324Z,18.33
2023-03-19T10:27:50.756Z,18.27
2023-03-19T10:30:17.199Z,18.55
2023-03-19T10:32:44.098Z,18.57
2023-03-19T10:35:20.274Z,18.52
2023-03-19T10:37:47.212Z,18.33
2023-03-19T10:40:42.678Z,18.55
2023-03-19T10:43:12.275Z,18.35
2023-03-19T10:45:50.458Z,18.52
2023-03-19T10:48:16.950Z,18.39
2023-03-19T10:50:50.323Z,18.51
2023-03-19T10:53:16.485Z,18.21
2023-03-19T10:56:15.054Z,18.14
2023-03-19T10:58:41.268Z,18.38
2023-03-19T11:01:08.601Z,18.25
2023-03-19T11:03:34.858Z,18.42
2023-03-19T11:06:04.811Z,18.65
2023-03-19T11:08:35.735Z,18.83
2023-03-19T11:11:02.428Z,18.60
2023-03-19T11:13:28.629Z,18.62
2023-03-19T11:15:55.228Z,18.62
2023-03-19T11:18:22.373Z,18.39
2023-03-19T11:20:49.516Z,18.48
2023-03-19T11:23:16.034Z,18.63
2023-03-19T11:25:46.261Z,18.73
2023-03-19T11:28:13.166Z,18.70
2023-03-19T11:30:41.640Z,18.69
2023-03-19T11:33:13.932Z,18.71
2023-03-19T11:35:41.915Z,19.06
2023-03-19T11:38:11.714Z,19.00
2023-03-19T11:40:37.892Z,19.04
2023-03-19T11:43:19.095Z,17.72
2023-03-19T11:45:49.348Z,18.16
2023-03-19T11:48:22.059Z,18.59
2023-03-19T11:50:51.279Z,18.49
2023-03-19T11:53:22.679Z,18.59
2023-03-19T11:56:07.638Z,18.25
2023-03-19T11:58:38.461Z,17.91
2023-03-19T12:01:10.981Z,18.21
2023-03-19T12:03:40.922Z,18.69
2023-03-19T12:06:10.246Z,18.79
2023-03-19T12:08:42.157Z,18.68
2023-03-19T12:11:23.524Z,18.81
2023-03-19T12:14:04.938Z,19.27
2023-03-19T12:16:45.927Z,19.36
2023-03-19T12:19:32.464Z,18.84
2023-03-19T12:22:18.528Z,18.29
2023-03-19T12:24:53.761Z,17.90
2023-03-19T12:27:29.341Z,18.05
2023-03-19T12:30:07.937Z,17.91
2023-03-19T12:32:34.163Z,17.65
2023-03-19T12:35:20.612Z,17.68
2023-03-19T12:37:51.212Z,18.05
2023-03-19T12:40:17.496Z,18.29
2023-03-19T12:42:43.764Z,18.94
2023-03-19T12:45:24.442Z,18.27
2023-03-19T12:47:53.304Z,18.22
2023-03-19T12:50:19.583Z,18.06
2023-03-19T12:52:51.876Z,18.32
2023-03-19T12:55:21.794Z,18.20
2023-03-19T12:57:47.996Z,17.80
2023-03-19T13:00:17.573Z,17.74
2023-03-19T13:03:02.324Z,18.11
2023-03-19T13:05:31.589Z,18.63
2023-03-19T13:07:59.544Z,18.43
2023-03-19T13:10:25.756Z,18.15
2023-03-19T13:12:51.966Z,18.19
2023-03-19T13:15:47.710Z,17.99
2023-03-19T13:18:32.592Z,17.92
2023-03-19T13:21:17.367Z,18.28
2023-03-19T13:23:43.592Z,18.43
2023-03-19T13:26:10.332Z,18.41
2023-03-19T13:28:37.078Z,18.23
2023-03-19T13:31:03.332Z,18.26
2023-03-19T13:33:29.615Z,18.23
2023-03-19T13:35:55.918Z,18.13
2023-03-19T13:38:24.720Z,18.07
2023-03-19T13:40:54.585Z,17.95
2023-03-19T13:43:29.908Z,17.77
2023-03-19T13:46:11.383Z,17.84
2023-03-19T13:48:46.631Z,18.10
2023-03-19T13:51:12.791Z,18.07
2023-03-19T13:53:39.101Z,17.89
2023-03-19T13:56:15.899Z,17.81
2023-03-19T13:58:52.991Z,17.53
2023-03-19T14:01:25.021Z,17.34
2023-03-19T14:03:55.027Z,17.22
2023-03-19T14:06:34.545Z,17.22
2023-03-19T14:09:00.790Z,17.32
2023-03-19T14:11:31.171Z,17.36
2023-03-19T14:13:57.375Z,17.26
2023-03-19T14:16:29.738Z,17.44
2023-03-19T14:18:56.328Z,17.60
2023-03-19T14:21:32.887Z,17.75
2023-03-19T14:24:53.262Z,17.83
2023-03-19T14:27:18.544Z,17.97
2023-03-19T14:29:44.856Z,17.91
2023-03-19T14:32:15.961Z,17.87
2023-03-19T14:34:42.494Z,17.58
2023-03-19T14:37:23.632Z,17.53
2023-03-19T14:39:54.098Z,17.50
2023-03-19T14:42:22.367Z,17.56
2023-03-19T14:45:07.693Z,17.56
2023-03-19T14:47:38.984Z,17.58
2023-03-19T14:50:24.049Z,17.52
2023-03-19T14:53:01.044Z,17.55
2023-03-19T14:55:34.081Z,17.50
2023-03-19T14:58:00.735Z,17.39
2023-03-19T15:00:26.955Z,17.29
2023-03-19T15:02:53.156Z,17.24
2023-03-19T15:05:24.242Z,17.21
2023-03-19T15:07:50.552Z,17.11
2023-03-19T15:10:20.613Z,17.05
2023-03-19T15:13:02.137Z,17.03
2023-03-19T15:15:40.246Z,16.94
2023-03-19T15:18:12.555Z,16.92
2023-03-19T15:20:45.704Z,16.92
2023-03-19T15:23:25.818Z,16.99
2023-03-19T15:25:54.199Z,17.10
2023-03-19T15:28:20.408Z,17.12
2023-03-19T15:31:03.011Z,17.10
2023-03-19T15:33:40.044Z,17.06
2023-03-19T15:36:10.679Z,17.06
2023-03-19T15:38:41.556Z,16.94
2023-03-19T15:41:07.798Z,16.82
2023-03-19T15:43:34.934Z,16.75
2023-03-19T15:46:01.163Z,16.60
2023-03-19T15:48:47.688Z,16.55
2023-03-19T15:51:13.912Z,16.48
2023-03-19T15:53:40.125Z,16.29
2023-03-19T15:56:06.586Z,16.03
2023-03-19T15:58:36.536Z,15.72
2023-03-19T16:01:03.242Z,14.93
2023-03-19T16:03:34.211Z,14.69
2023-03-19T16:06:00.964Z,14.41
2023-03-19T16:08:27.163Z,14.12
2023-03-19T16:10:53.369Z,14.03
2023-03-19T16:13:25.558Z,13.98
2023-03-19T16:15:55.377Z,13.95
2023-03-19T16:18:21.563Z,13.82
2023-03-19T16:21:06.302Z,13.65
2023-03-19T16:23:33.568Z,13.46
2023-03-19T16:26:03.997Z,13.33
2023-03-19T16:28:30.201Z,13.26
2023-03-19T16:30:56.418Z,13.05
2023-03-19T16:33:22.683Z,12.98
2023-03-19T16:35:49.056Z,13.08
2023-03-19T16:38:22.473Z,12.96
2023-03-19T16:40:49.135Z,13.01
2023-03-19T16:43:16.265Z,12.91
2023-03-19T16:45:42.521Z,12.75
2023-03-19T16:48:08.807Z,12.64
2023-03-19T16:50:35.595Z,12.65
2023-03-19T16:53:02.943Z,12.68
2023-03-19T16:55:32.945Z,12.91
2023-03-19T16:58:03.173Z,12.97
2023-03-19T17:00:31.717Z,13.18
2023-03-19T17:02:58.225Z,13.16
2023-03-19T17:05:24.654Z,13.28
2023-03-19T17:07:50.881Z,13.22
2023-03-19T17:10:17.867Z,12.98
2023-03-19T17:12:45.283Z,12.83
2023-03-19T17:15:32.030Z,12.66
2023-03-19T17:17:58.521Z,12.65
2023-03-19T17:20:27.913Z,12.70
2023-03-19T17:22:54.150Z,12.48
2023-03-19T17:25:20.499Z,12.02
2023-03-19T17:27:46.962Z,11.97
2023-03-19T17:30:13.191Z,11.74
2023-03-19T17:32:39.894Z,11.58
2023-03-19T17:35:19.446Z,11.39
2023-03-19T17:37:45.688Z,11.39
2023-03-19T17:40:14.888Z,11.31
2023-03-19T17:42:41.111Z,11.31
2023-03-19T17:45:07.667Z,11.48
2023-03-19T17:47:33.891Z,11.66
2023-03-19T17:50:00.229Z,11.76
2023-03-19T17:52:26.448Z,12.02
2023-03-19T17:54:52.647Z,12.16
2023-03-19T17:57:18.846Z,12.34
2023-03-19T17:59:45.060Z,12.41
2023-03-19T18:02:17.539Z,12.47
2023-03-19T18:04:43.768Z,12.51
2023-03-19T18:07:09.974Z,12.37
2023-03-19T18:09:36.188Z,12.23
2023-03-19T18:12:02.405Z,12.01
2023-03-19T18:14:28.614Z,12.20
2023-03-19T18:16:54.823Z,12.37
2023-03-19T18:19:23.065Z,11.84
2023-03-19T18:21:49.266Z,11.90
2023-03-19T18:24:15.500Z,11.92
2023-03-19T18:26:41.711Z,11.90
2023-03-19T18:29:07.926Z,12.16
2023-03-19T18:31:34.179Z,12.26
2023-03-19T18:34:00.854Z,12.34
2023-03-19T18:36:27.855Z,12.40
2023-03-19T18:38:54.344Z,12.05
2023-03-19T18:41:20.805Z,11.90
2023-03-19T18:43:47.018Z,11.92
2023-03-19T18:46:13.839Z,11.78
2023-03-19T18:48:40.055Z,11.89
2023-03-19T18:51:06.340Z,12.05
2023-03-19T18:53:32.560Z,11.82
2023-03-19T18:55:58.794Z,11.81
2023-03-19T18:58:25.462Z,11.87
2023-03-19T19:00:51.731Z,11.87
2023-03-19T19:03:18.640Z,11.86
2023-03-19T19:05:44.869Z,11.91
2023-03-19T19:08:15.209Z,11.83
2023-03-19T19:10:42.053Z,11.89
2023-03-19T19:13:10.881Z,11.90
2023-03-19T19:15:37.074Z,11.88
2023-03-19T19:18:07.865Z,11.80
2023-03-19T19:20:34.317Z,11.77
2023-03-19T19:23:00.694Z,11.77
2023-03-19T19:25:27.478Z,11.74
2023-03-19T19:28:00.900Z,11.71
2023-03-19T19:30:27.187Z,11.65
2023-03-19T19:32:53.399Z,11.55
2023-03-19T19:35:22.744Z,11.26
2023-03-19T19:37:49.164Z,11.33
2023-03-19T19:40:16.280Z,11.34
2023-03-19T19:42:42.567Z,11.33
2023-03-19T19:45:14.060Z,11.35
2023-03-19T19:47:40.277Z,11.36
2023-03-19T19:50:06.564Z,11.34
2023-03-19T19:52:32.770Z,11.33
2023-03-19T19:54:58.995Z,11.31
2023-03-19T19:57:25.252Z,11.32
2023-03-19T19:59:51.612Z,11.35
2023-03-19T20:02:21.490Z,11.38
2023-03-19T20:04:47.702Z,11.35
2023-03-19T20:07:13.894Z,11.39
2023-03-19T20:09:40.108Z,11.37
2023-03-19T20:12:13.186Z,11.41
2023-03-19T20:14:39.404Z,11.51
2023-03-19T20:17:05.638Z,11.47
2023-03-19T20:19:31.860Z,11.45
2023-03-19T20:21:58.067Z,11.34
2023-03-19T20:24:24.269Z,11.19
2023-03-19T20:26:50.467Z,11.21
2023-03-19T20:29:16.755Z,11.19
2023-03-19T20:31:43.029Z,11.21
2023-03-19T20:34:12.709Z,11.05
2023-03-19T20:36:38.916Z,11.11
2023-03-19T20:39:05.134Z,11.09
2023-03-19T20:41:31.332Z,11.09
2023-03-19T20:43:57.558Z,11.01
2023-03-19T20:46:23.815Z,11.00
2023-03-19T20:48:50.051Z,11.00
2023-03-19T20:51:17.451Z,10.89
2023-03-19T20:53:43.668Z,10.70
2023-03-19T20:56:13.718Z,10.48
2023-03-19T20:58:39.920Z,10.37
2023-03-19T21:01:06.141Z,10.20
2023-03-19T21:03:32.336Z,10.22
2023-03-19T21:05:59.311Z,10.26
2023-03-19T21:08:33.128Z,10.27
2023-03-19T21:10:59.353Z,10.28
2023-03-19T21:13:25.584Z,10.16
2023-03-19T21:15:51.890Z,10.11
2023-03-19T21:18:18.136Z,10.08
2023-03-19T21:20:44.896Z,10.14
2023-03-19T21:23:14.058Z,10.12
2023-03-19T21:25:40.270Z,10.10
2023-03-19T21:28:06.966Z,10.07
2023-03-19T21:30:34.032Z,10.04
2023-03-19T21:33:00.298Z,9.96
2023-03-19T21:35:26.545Z,9.92
2023-03-19T21:37:53.032Z,9.75
2023-03-19T21:40:20.064Z,9.67
2023-03-19T21:42:47.709Z,9.59
2023-03-19T21:45:14.758Z,9.56
2023-03-19T21:47:40.958Z,9.51
2023-03-19T21:50:09.509Z,9.48
2023-03-19T21:52:49.923Z,9.49
2023-03-19T21:55:21.914Z,9.45
2023-03-19T21:57:48.118Z,9.40
2023-03-19T22:00:15.458Z,9.48
2023-03-19T22:02:44.260Z,9.50
2023-03-19T22:05:20.650Z,9.47
2023-03-19T22:07:46.856Z,9.50
2023-03-19T22:10:13.094Z,9.43
2023-03-19T22:12:39.471Z,9.43
2023-03-19T22:15:05.959Z,9.46
2023-03-19T22:17:32.158Z,9.47
2023-03-19T22:19:58.381Z,9.43
2023-03-19T22:22:24.636Z,9.40
2023-03-19T22:24:51.084Z,9.31
2023-03-19T22:27:17.300Z,9.25
2023-03-19T22:29:44.235Z,9.26
2023-03-19T22:32:16.855Z,9.15
2023-03-19T22:34:43.381Z,9.08
2023-03-19T22:37:23.611Z,9.12
2023-03-19T22:39:49.812Z,9.07
2023-03-19T22:42:16.031Z,9.02
2023-03-19T22:44:42.226Z,9.10
2023-03-19T22:47:08.703Z,9.08
2023-03-19T22:49:34.899Z,9.12
2023-03-19T22:52:01.112Z,9.10
2023-03-19T22:54:27.322Z,8.99
2023-03-19T22:56:53.564Z,9.03
2023-03-19T22:59:19.772Z,9.19
2023-03-19T23:01:46.278Z,9.14
2023-03-19T23:04:22.650Z,9.09
2023-03-19T23:06:49.014Z,8.96
2023-03-19T23:09:16.264Z,8.96
2023-03-19T23:11:42.483Z,9.01
2023-03-19T23:14:22.115Z,9.00
2023-03-19T23:16:54.565Z,9.10
2023-03-19T23:19:21.898Z,9.22
2023-03-19T23:21:48.127Z,9.02
2023-03-19T23:24:14.752Z,9.21
2023-03-19T23:26:44.466Z,9.23
2023-03-19T23:29:15.252Z,9.31
2023-03-19T23:31:41.459Z,9.36
2023-03-19T23:34:09.620Z,9.34
2023-03-19T23:36:35.842Z,9.33
2023-03-19T23:39:02.058Z,9.41
2023-03-19T23:41:28.343Z,9.45
2023-03-19T23:43:54.536Z,9.52
2023-03-19T23:46:20.872Z,9.54
2023-03-19T23:48:47.125Z,9.30
2023-03-19T23:51:13.748Z,9.35
2023-03-19T23:53:39.998Z,9.32
2023-03-19T23:56:09.814Z,9.31
2023-03-19T23:58:37.478Z,9.21
